Flight Track Log - Related Links

Times and Time Zones

All times are in EDT time to prevent confusion due to time zone crossing. See the N779NC flight status page for this flight to view local times or setup timezone preferences in your user account.

Time Position Orientation Groundspeed Altitude Reporting Facility
EDT Latitude Longitude Course Direction KTS MPH feet Rate Location/Type
Thu 05:42:40 PM 33.6500 -84.3833 327° Northwest 159 183 2,500  Level Atlanta TRACON
Thu 05:43:40 PM 33.6833 -84.3167 59° Northeast 258 297 4,000 2,000 Climbing Atlanta TRACON
Thu 05:44:46 PM 33.7500 -84.2833 23° Northeast 301 346 6,700 2,381 Climbing Atlanta TRACON
Thu 05:45:00 PM 34.0585 -84.5275 349° North  Level FlightAware Approximate
Thu 05:45:46 PM 33.8333 -84.2833 360° North 317 365 9,000  Level Atlanta TRACON
Thu 05:46:00 PM 34.1583 -84.5547 347° North  Level FlightAware Approximate
Thu 05:47:00 PM 34.2543 -84.6090 327° Northwest  Level FlightAware Approximate
Thu 05:47:54 PM 34.0214 -84.3469 344° North 341 392 12,900  Level Atlanta Center
Thu 05:48:54 PM 34.0964 -84.4275 318° Northwest 353 406 14,100 1,400 Climbing Atlanta Center
Thu 05:49:54 PM 34.1836 -84.5108 322° Northwest 383 441 15,700 1,750 Climbing Atlanta Center
Thu 05:50:54 PM 34.2708 -84.5969 321° Northwest 401 461 17,600 1,600 Climbing Atlanta Center
Thu 05:51:54 PM 34.3625 -84.6806 323° Northwest 401 461 18,900 1,300 Climbing Atlanta Center
Thu 05:52:54 PM 34.4558 -84.7694 322° Northwest 418 481 20,200 1,300 Climbing Atlanta Center
Thu 05:53:54 PM 34.5639 -84.8561 327° Northwest 418 481 21,500 1,150 Climbing Atlanta Center
Thu 05:54:54 PM 34.6614 -84.9150 334° Northwest 433 498 22,500 1,050 Climbing Atlanta Center
Thu 05:55:54 PM 34.7797 -84.9972 330° Northwest 440 506 23,600 750 Climbing Atlanta Center
Thu 05:56:54 PM 34.8769 -85.0944 321° Northwest 449 517 24,000 158 Climbing Atlanta Center
Thu 05:58:26 PM 35.0361 -85.2622 319° Northwest 490 564 24,000  Level Memphis Center
Thu 05:59:26 PM 35.1364 -85.3678 319° Northwest 490 564 24,000 -300 Level Memphis Center
Thu 06:00:26 PM 35.2181 -85.4822 311° West 475 547 23,400 -1,950 Descending Memphis Center
Thu 06:01:26 PM 35.2931 -85.5847 312° West 437 503 20,100 -2,750 Descending Memphis Center
Thu 06:02:26 PM 35.3681 -85.6900 311° West 423 487 17,900 -2,450 Descending Memphis Center
Thu 06:03:26 PM 35.4447 -85.7875 314° West 410 472 15,200 -2,350 Descending Memphis Center
Thu 06:04:26 PM 35.5122 -85.8681 316° Northwest 398 458 13,200 -1,700 Descending Memphis Center
Thu 06:05:26 PM 35.5922 -85.9506 320° Northwest 377 434 11,800 -1,140 Descending Memphis Center
Thu 06:06:27 PM 35.6625 -86.0517 311° West 367 422 10,900 -400 Descending Memphis Center
Thu 06:07:26 PM 35.7200 -86.1456 307° West 350 403 11,000 50 Climbing Memphis Center
Thu 06:08:26 PM 35.7808 -86.2194 315° West 350 403 11,000 -250 Level Memphis Center
Thu 06:09:26 PM 35.8564 -86.2975 320° Northwest 350 403 10,500 -750 Descending Memphis Center
Thu 06:10:26 PM 35.9194 -86.3739 316° Northwest 338 389 9,500 -1,150 Descending Memphis Center
Thu 06:11:26 PM 35.9739 -86.4481 312° West 307 353 8,200 -1,450 Descending Memphis Center
Thu 06:12:26 PM 36.0117 -86.5258 301° West 277 319 6,600 -1,150 Descending Memphis Center
Thu 06:13:26 PM 36.0733 -86.5589 337° Northwest 239 275 5,900 -600 Descending Memphis Center
Thu 06:14:26 PM 36.1453 -86.5272 20° North 232 267 5,400 -1,050 Descending Memphis Center
Thu 06:15:26 PM 36.2133 -86.5036 16° North 245 282 3,800 -1,350 Descending Memphis Center
Thu 06:16:26 PM 36.2744 -86.5289 342° North 221 254 2,700 -950 Descending Memphis Center
Thu 06:17:26 PM 36.2411 -86.5950 238° Southwest 144 166 1,900 -250 Descending Memphis Center
Thu 06:18:26 PM 36.2181 -86.6578 246° West 178 205 2,200 300 Climbing Memphis Center

Login

Don't have an account? Register now (free) for customized features, flight alerts, and more!